Time;durP1;ratioP1;P1;durP2;ratioP2;P2;SDS_P1;SDS_P2;PMS_P1;PMS_P2;Temp;Humidity;BMP_temperature;BMP_pressure;BME280_temperature;BME280_humidity;BME280_pressure;Samples;Min_cycle;Max_cycle;Signal;HPM_P1;HPM_P2
2023/01/16 00:00:59;;;;;;;2.03;0.60;;;4.90;1.00;;;;;;5010026;28;20560;-80
2023/01/16 00:03:24;;;;;;;3.67;1.10;;;4.80;1.00;;;;;;5010277;28;20199;-81
2023/01/16 00:05:50;;;;;;;1.03;0.70;;;4.80;1.00;;;;;;5010706;28;20658;-79
2023/01/16 00:08:16;;;;;;;1.70;0.70;;;4.90;1.00;;;;;;5009099;28;20183;-81
2023/01/16 00:10:43;;;;;;;2.13;0.67;;;4.90;1.00;;;;;;5010589;28;20187;-82
2023/01/16 00:13:11;;;;;;;3.13;0.80;;;4.80;1.00;;;;;;5010527;28;20191;-79
2023/01/16 00:15:36;;;;;;;3.20;0.70;;;4.80;1.00;;;;;;5009462;28;20744;-78
2023/01/16 00:18:02;;;;;;;2.27;0.73;;;4.90;1.00;;;;;;5010574;28;20249;-82
2023/01/16 00:20:27;;;;;;;1.40;0.67;;;4.70;1.00;;;;;;5009318;28;20198;-80
2023/01/16 00:22:53;;;;;;;1.50;0.70;;;4.70;1.00;;;;;;5009118;28;20681;-78
2023/01/16 00:25:18;;;;;;;2.97;0.90;;;4.70;1.00;;;;;;5008585;28;20353;-81
2023/01/16 00:27:44;;;;;;;1.30;0.60;;;4.60;1.00;;;;;;5010002;28;20281;-82
2023/01/16 00:30:10;;;;;;;1.37;0.50;;;4.80;1.00;;;;;;5010519;28;20214;-82
2023/01/16 00:32:35;;;;;;;2.07;0.80;;;4.80;1.00;;;;;;5008510;28;20187;-80
2023/01/16 00:35:02;;;;;;;3.83;0.80;;;4.70;1.00;;;;;;5008975;28;20231;-80
2023/01/16 00:37:27;;;;;;;2.90;0.60;;;4.80;1.00;;;;;;5009450;28;20657;-81
2023/01/16 00:39:53;;;;;;;1.70;0.80;;;4.80;1.00;;;;;;5008250;28;20203;-81
2023/01/16 00:42:19;;;;;;;1.80;0.60;;;4.80;1.00;;;;;;5009760;28;20175;-81
2023/01/16 00:44:45;;;;;;;1.90;0.77;;;4.70;1.00;;;;;;5024193;28;20750;-80
2023/01/16 00:47:10;;;;;;;2.90;1.10;;;4.60;1.00;;;;;;5008582;28;20535;-80
2023/01/16 00:49:36;;;;;;;1.77;0.70;;;4.50;1.00;;;;;;5009572;28;20212;-79
2023/01/16 00:52:02;;;;;;;2.50;0.77;;;4.70;1.00;;;;;;5007445;28;20202;-81
2023/01/16 00:54:27;;;;;;;1.90;0.80;;;4.70;1.00;;;;;;5009068;28;20207;-80
2023/01/16 00:56:53;;;;;;;1.90;0.60;;;4.80;1.00;;;;;;5007913;28;20202;-81
2023/01/16 00:59:18;;;;;;;1.50;0.60;;;4.90;1.00;;;;;;5009059;28;20192;-80
2023/01/16 01:01:44;;;;;;;2.63;0.80;;;5.00;1.00;;;;;;5009811;28;20195;-80
2023/01/16 01:04:11;;;;;;;2.17;0.70;;;5.00;1.00;;;;;;5008593;28;20495;-81
2023/01/16 01:06:37;;;;;;;1.23;0.60;;;5.00;1.00;;;;;;5007913;28;20655;-80
2023/01/16 01:09:03;;;;;;;1.90;0.80;;;5.00;1.00;;;;;;5009147;28;20184;-80
2023/01/16 01:11:28;;;;;;;2.77;0.87;;;5.00;1.00;;;;;;5007404;28;20533;-79
2023/01/16 01:13:54;;;;;;;1.90;0.70;;;5.00;1.00;;;;;;5008646;28;20192;-81
2023/01/16 01:16:19;;;;;;;3.30;0.83;;;5.00;1.00;;;;;;5008557;28;20191;-81
2023/01/16 01:18:45;;;;;;;2.03;0.70;;;5.00;1.00;;;;;;5009225;28;20246;-82
2023/01/16 01:21:10;;;;;;;3.53;1.23;;;5.10;1.00;;;;;;5009083;28;20196;-81
2023/01/16 01:23:36;;;;;;;3.63;0.83;;;5.10;1.00;;;;;;5008813;28;20195;-82
2023/01/16 01:26:07;;;;;;;1.97;0.80;;;5.10;1.00;;;;;;5009201;28;20637;-81
2023/01/16 01:28:32;;;;;;;3.30;0.70;;;5.10;1.00;;;;;;5009124;28;20206;-80
2023/01/16 01:31:08;;;;;;;1.60;0.77;;;5.10;1.00;;;;;;5007822;28;20726;-81
2023/01/16 01:33:34;;;;;;;1.53;0.67;;;5.20;1.00;;;;;;5008809;28;20242;-80
2023/01/16 01:36:00;;;;;;;1.53;0.70;;;5.10;1.00;;;;;;5022773;28;20243;-80
2023/01/16 01:38:25;;;;;;;2.13;0.90;;;5.10;1.00;;;;;;5008505;28;20266;-82
2023/01/16 01:40:51;;;;;;;2.43;0.83;;;5.00;1.00;;;;;;5009357;28;20195;-82
2023/01/16 01:43:17;;;;;;;2.63;0.70;;;5.00;1.00;;;;;;5009292;28;20207;-81
2023/01/16 01:46:02;;;;;;;0.93;0.67;;;6.80;1.00;;;;;;5008264;28;20200;-80
2023/01/16 01:48:34;;;;;;;2.60;0.60;;;5.00;1.00;;;;;;5008425;28;20175;-81
2023/01/16 01:51:15;;;;;;;2.70;0.83;;;5.00;1.00;;;;;;5008277;28;20239;-79
2023/01/16 01:53:55;;;;;;;3.43;0.77;;;5.00;1.00;;;;;;5008302;28;20188;-79
2023/01/16 01:56:28;;;;;;;2.03;0.70;;;5.00;1.00;;;;;;5008546;28;20183;-80
2023/01/16 01:59:11;;;;;;;2.43;0.90;;;5.00;1.00;;;;;;5008705;28;20759;-82
2023/01/16 02:01:38;;;;;;;3.73;0.90;;;5.00;1.00;;;;;;5008210;28;20179;-82
2023/01/16 02:04:10;;;;;;;2.07;0.60;;;5.00;1.00;;;;;;5007464;28;20277;-81
2023/01/16 02:06:47;;;;;;;3.83;0.90;;;5.00;1.00;;;;;;5008414;28;20578;-81
2023/01/16 02:09:14;;;;;;;4.63;0.80;;;5.10;1.00;;;;;;5011524;28;20186;-81
2023/01/16 02:11:53;;;;;;;2.73;0.83;;;5.10;1.00;;;;;;5011348;28;20184;-81
2023/01/16 02:14:20;;;;;;;3.50;1.17;;;5.00;1.00;;;;;;5011463;28;20195;-82
2023/01/16 02:19:39;;;;;;;3.03;0.67;;;4.90;1.00;;;;;;5012309;28;21295;-81
2023/01/16 02:22:18;;;;;;;3.30;0.80;;;4.90;1.00;;;;;;5011974;28;20180;-80
2023/01/16 02:24:50;;;;;;;2.07;0.80;;;4.80;1.00;;;;;;5011406;28;20217;-80
2023/01/16 02:27:42;;;;;;;2.80;1.07;;;4.90;1.00;;;;;;5010315;28;20179;-81
2023/01/16 02:30:10;;;;;;;2.07;0.60;;;4.80;1.00;;;;;;5011487;28;20182;-81
2023/01/16 02:32:57;;;;;;;2.70;0.60;;;4.80;1.00;;;;;;5026351;28;20562;-78
2023/01/16 02:35:33;;;;;;;3.33;1.03;;;4.80;1.00;;;;;;5009741;28;20215;-81
2023/01/16 02:38:12;;;;;;;2.13;0.67;;;4.50;1.00;;;;;;5011475;28;20671;-82
2023/01/16 02:41:22;;;;;;;1.43;0.80;;;4.70;1.00;;;;;;5011270;28;20218;-82
2023/01/16 02:43:55;;;;;;;2.43;0.50;;;4.80;1.00;;;;;;5009881;28;20233;-80
2023/01/16 02:46:51;;;;;;;3.23;0.90;;;4.70;1.00;;;;;;5010796;28;20646;-79
2023/01/16 02:49:28;;;;;;;2.20;0.70;;;4.70;1.00;;;;;;5026046;28;20186;-80
2023/01/16 02:52:32;;;;;;;1.23;0.60;;;4.70;1.00;;;;;;5011405;28;20179;-81
2023/01/16 02:55:04;;;;;;;1.73;0.60;;;4.70;1.00;;;;;;5009637;28;20228;-83
2023/01/16 02:57:45;;;;;;;3.30;0.83;;;4.70;1.00;;;;;;5010906;28;20180;-81
2023/01/16 03:00:16;;;;;;;1.27;0.50;;;4.50;1.00;;;;;;5011514;28;20179;-81
2023/01/16 03:02:42;;;;;;;1.83;0.73;;;4.40;1.00;;;;;;5026109;28;20211;-81
2023/01/16 03:05:08;;;;;;;1.70;0.70;;;4.40;1.00;;;;;;5010475;28;20207;-80
2023/01/16 03:08:03;;;;;;;1.30;0.70;;;4.40;1.00;;;;;;5011944;28;20188;-79
2023/01/16 03:10:41;;;;;;;0.73;0.50;;;4.40;1.00;;;;;;5011399;28;20540;-80
2023/01/16 03:13:09;;;;;;;1.27;0.60;;;4.20;1.00;;;;;;5010878;28;20535;-82
2023/01/16 03:15:58;;;;;;;0.80;0.50;;;4.20;1.00;;;;;;5010813;28;20200;-81
2023/01/16 03:18:32;;;;;;;1.90;0.70;;;4.30;1.00;;;;;;5011476;28;20211;-81
2023/01/16 03:21:08;;;;;;;0.93;0.50;;;4.20;1.00;;;;;;5008842;28;20190;-79
2023/01/16 03:23:46;;;;;;;0.93;0.50;;;4.20;1.00;;;;;;5011847;28;20755;-80
2023/01/16 03:26:28;;;;;;;1.20;0.50;;;4.20;1.00;;;;;;5011393;28;20203;-82
2023/01/16 03:29:10;;;;;;;0.67;0.53;;;4.20;1.00;;;;;;5010018;28;20184;-80
2023/01/16 03:31:55;;;;;;;3.10;0.80;;;4.10;1.00;;;;;;5008818;28;20645;-82
2023/01/16 03:34:34;;;;;;;1.97;0.70;;;4.10;1.00;;;;;;5009061;28;20272;-82
2023/01/16 03:37:32;;;;;;;1.97;0.70;;;4.10;1.00;;;;;;5009586;28;20179;-79
2023/01/16 03:40:01;;;;;;;2.97;0.50;;;4.00;1.00;;;;;;5009247;28;20203;-80
2023/01/16 03:42:36;;;;;;;1.50;0.63;;;4.40;1.00;;;;;;5009731;28;20290;-81
2023/01/16 03:45:11;;;;;;;2.50;0.57;;;3.90;1.00;;;;;;5009866;28;20190;-79
2023/01/16 03:47:46;;;;;;;1.93;0.67;;;3.90;1.00;;;;;;5010264;28;20182;-81
2023/01/16 03:50:13;;;;;;;1.60;0.70;;;3.90;1.00;;;;;;5010938;28;20292;-81
2023/01/16 03:52:44;;;;;;;3.40;0.50;;;3.80;1.00;;;;;;5008616;28;20193;-80
2023/01/16 03:55:23;;;;;;;1.87;0.70;;;3.90;1.00;;;;;;5009120;28;20203;-81
2023/01/16 03:57:55;;;;;;;1.73;0.60;;;4.00;1.00;;;;;;5008796;28;20682;-82
2023/01/16 04:00:21;;;;;;;1.10;0.57;;;4.10;1.00;;;;;;5009235;28;20183;-78
2023/01/16 04:02:54;;;;;;;1.93;0.70;;;4.20;1.00;;;;;;5009637;28;20203;-82
2023/01/16 04:05:36;;;;;;;2.60;0.60;;;4.10;1.00;;;;;;5008753;28;20723;-77
2023/01/16 04:08:17;;;;;;;1.23;0.60;;;4.10;1.00;;;;;;5009533;28;20186;-80
2023/01/16 04:10:47;;;;;;;2.70;0.90;;;4.10;1.00;;;;;;5009415;28;20203;-81
2023/01/16 04:13:21;;;;;;;2.47;0.70;;;4.10;1.00;;;;;;5010544;28;20175;-82
2023/01/16 04:15:51;;;;;;;1.67;0.63;;;4.10;1.00;;;;;;5007828;28;20577;-79
2023/01/16 04:18:16;;;;;;;1.30;0.60;;;4.20;1.00;;;;;;5008624;28;20237;-81
2023/01/16 04:20:45;;;;;;;0.97;0.60;;;4.10;1.00;;;;;;5009327;28;20229;-79
2023/01/16 04:23:13;;;;;;;2.67;0.77;;;4.10;1.00;;;;;;5009513;28;20203;-80
2023/01/16 04:25:39;;;;;;;2.37;0.70;;;4.10;1.00;;;;;;5008192;28;20211;-78
2023/01/16 04:28:04;;;;;;;3.13;0.60;;;4.10;1.00;;;;;;5009732;28;20285;-82
2023/01/16 04:30:30;;;;;;;1.27;0.60;;;4.10;1.00;;;;;;5009201;28;20241;-80
2023/01/16 04:32:55;;;;;;;3.37;0.80;;;4.10;1.00;;;;;;5010039;28;20192;-80
2023/01/16 04:35:21;;;;;;;2.47;1.20;;;4.10;1.00;;;;;;5009419;28;20227;-79
2023/01/16 04:37:47;;;;;;;2.87;0.60;;;4.10;1.00;;;;;;5009138;28;20265;-81
2023/01/16 04:40:12;;;;;;;2.77;0.80;;;4.10;1.00;;;;;;5009733;28;20205;-81
2023/01/16 04:42:38;;;;;;;1.63;0.60;;;4.10;1.00;;;;;;5008279;28;20213;-79
2023/01/16 04:45:04;;;;;;;1.20;0.70;;;4.10;1.00;;;;;;5008927;28;20277;-80
2023/01/16 04:47:30;;;;;;;3.27;0.97;;;4.00;1.00;;;;;;5009186;28;20530;-80
2023/01/16 04:49:55;;;;;;;2.00;0.80;;;4.00;1.00;;;;;;5009185;28;20184;-79
2023/01/16 04:52:21;;;;;;;3.57;1.00;;;3.80;1.00;;;;;;5008927;28;20229;-81
2023/01/16 04:54:46;;;;;;;1.47;0.80;;;3.80;1.00;;;;;;5008574;28;21019;-80
2023/01/16 04:57:12;;;;;;;2.07;0.80;;;3.60;1.00;;;;;;5008674;28;20207;-80
2023/01/16 04:59:37;;;;;;;3.50;0.80;;;3.50;1.00;;;;;;5008863;28;20548;-81
2023/01/16 05:02:03;;;;;;;2.20;0.60;;;3.40;1.00;;;;;;5009094;28;20732;-81
2023/01/16 05:04:28;;;;;;;2.23;0.60;;;3.20;1.00;;;;;;5008716;28;20219;-81
2023/01/16 05:06:54;;;;;;;3.10;0.80;;;3.20;1.00;;;;;;5009385;28;20187;-79
2023/01/16 05:09:19;;;;;;;1.97;0.80;;;3.10;1.00;;;;;;5008017;28;20198;-82
2023/01/16 05:11:45;;;;;;;3.67;0.80;;;3.10;1.00;;;;;;5013377;28;20188;-82
2023/01/16 05:14:10;;;;;;;2.00;0.97;;;3.20;1.00;;;;;;5008228;28;20195;-79
2023/01/16 05:16:38;;;;;;;2.00;0.83;;;3.30;1.00;;;;;;5007107;28;20216;-80
2023/01/16 05:19:04;;;;;;;3.00;1.07;;;3.30;1.00;;;;;;5007528;28;20621;-80
2023/01/16 05:21:29;;;;;;;1.90;0.83;;;3.70;1.00;;;;;;5008980;28;20270;-81
2023/01/16 05:23:55;;;;;;;4.70;1.10;;;3.60;1.00;;;;;;5008692;28;20222;-82
2023/01/16 05:26:21;;;;;;;2.20;0.73;;;3.70;1.00;;;;;;5008024;28;20238;-81
2023/01/16 05:28:46;;;;;;;3.27;1.13;;;3.80;1.00;;;;;;5008947;28;20183;-79
2023/01/16 05:31:12;;;;;;;1.30;0.70;;;3.80;1.00;;;;;;5007674;28;20184;-80
2023/01/16 05:33:37;;;;;;;1.43;0.70;;;3.80;1.00;;;;;;5008700;28;20191;-81
2023/01/16 05:36:03;;;;;;;1.03;0.50;;;3.90;1.00;;;;;;5008360;28;20634;-81
2023/01/16 05:38:29;;;;;;;2.47;0.87;;;3.80;1.00;;;;;;5009035;28;20605;-79
2023/01/16 05:40:54;;;;;;;3.17;0.73;;;3.80;1.00;;;;;;5007262;28;20223;-79
2023/01/16 05:43:21;;;;;;;1.57;0.90;;;3.80;1.00;;;;;;5008720;28;20203;-79
2023/01/16 05:45:46;;;;;;;1.97;1.13;;;3.80;1.00;;;;;;5011756;28;20199;-81
2023/01/16 05:48:12;;;;;;;1.50;0.80;;;3.90;1.00;;;;;;5012177;28;20194;-78
2023/01/16 05:50:37;;;;;;;2.10;1.00;;;3.90;1.00;;;;;;5011778;28;20418;-82
2023/01/16 05:53:03;;;;;;;1.53;0.63;;;4.00;1.00;;;;;;5012651;28;21148;-79
2023/01/16 05:55:29;;;;;;;1.07;0.70;;;4.00;1.00;;;;;;5013173;28;20644;-81
2023/01/16 05:57:54;;;;;;;1.47;0.73;;;4.00;1.00;;;;;;5012371;28;20191;-81
2023/01/16 06:00:20;;;;;;;1.70;0.67;;;4.10;1.00;;;;;;5012111;28;20274;-82
2023/01/16 06:02:46;;;;;;;1.80;0.90;;;4.10;1.00;;;;;;5012819;28;20294;-80
2023/01/16 06:05:12;;;;;;;1.63;0.53;;;4.10;1.00;;;;;;5012571;28;20214;-81
2023/01/16 06:07:38;;;;;;;2.13;0.60;;;4.10;1.00;;;;;;5013897;28;20186;-81
2023/01/16 06:10:04;;;;;;;1.57;0.70;;;4.20;1.00;;;;;;5013414;28;20657;-82
2023/01/16 06:12:31;;;;;;;4.20;1.43;;;4.20;1.00;;;;;;5012522;28;20192;-81
2023/01/16 06:14:57;;;;;;;0.90;0.70;;;4.10;1.00;;;;;;5011901;28;20210;-81
2023/01/16 06:17:23;;;;;;;1.60;0.80;;;4.10;1.00;;;;;;5012198;28;20203;-81
2023/01/16 06:19:48;;;;;;;1.80;0.60;;;4.00;1.00;;;;;;5012247;28;20629;-82
2023/01/16 06:22:14;;;;;;;1.33;0.83;;;4.00;1.00;;;;;;5011287;28;20254;-82
2023/01/16 06:24:40;;;;;;;3.23;1.00;;;3.80;1.00;;;;;;5011242;28;20207;-80
2023/01/16 06:27:05;;;;;;;1.47;0.80;;;3.70;1.00;;;;;;5011056;28;20222;-81
2023/01/16 06:29:31;;;;;;;2.27;0.90;;;3.70;1.00;;;;;;5011714;28;20195;-81
2023/01/16 06:31:57;;;;;;;1.30;0.90;;;3.60;1.00;;;;;;5011879;28;20610;-81
2023/01/16 06:34:22;;;;;;;2.27;0.83;;;3.60;1.00;;;;;;5011044;28;20274;-82
2023/01/16 06:36:49;;;;;;;1.23;0.97;;;3.50;1.00;;;;;;5011198;28;20180;-80
2023/01/16 06:39:15;;;;;;;3.53;1.10;;;3.50;1.00;;;;;;5025264;28;20429;-80
2023/01/16 06:41:41;;;;;;;2.07;0.90;;;3.40;1.00;;;;;;5011918;28;20184;-79
2023/01/16 06:44:07;;;;;;;2.50;1.13;;;3.30;1.00;;;;;;5009046;28;20216;-82
2023/01/16 06:46:33;;;;;;;1.80;0.90;;;3.30;1.00;;;;;;5011488;28;20188;-82
2023/01/16 06:48:59;;;;;;;3.43;0.83;;;3.00;1.00;;;;;;5011360;28;20210;-79
2023/01/16 06:51:24;;;;;;;2.97;1.03;;;2.90;20.60;;;;;;5010883;28;20195;-82
2023/01/16 06:53:50;;;;;;;1.90;1.00;;;2.80;99.90;;;;;;5010012;28;20194;-80
2023/01/16 06:56:19;;;;;;;2.40;0.90;;;2.90;82.40;;;;;;5009824;28;20258;-81
2023/01/16 06:58:44;;;;;;;1.93;1.10;;;3.00;63.50;;;;;;5010193;28;20187;-81
2023/01/16 07:01:10;;;;;;;2.83;0.90;;;4.90;85.40;;;;;;5011124;28;20186;-79
2023/01/16 07:03:36;;;;;;;2.30;0.97;;;2.90;67.70;;;;;;5011041;28;20227;-80
2023/01/16 07:06:02;;;;;;;3.37;0.93;;;2.90;90.30;;;;;;5009825;28;20314;-81
2023/01/16 07:08:28;;;;;;;2.00;0.90;;;2.90;89.90;;;;;;5011016;28;20171;-80
2023/01/16 07:10:54;;;;;;;1.73;1.33;;;2.70;99.90;;;;;;5011529;28;20903;-81
2023/01/16 07:13:26;;;;;;;1.43;0.90;;;2.80;99.90;;;;;;5011255;28;20187;-81
2023/01/16 07:24:10;;;;;;;1.40;1.10;;;2.70;99.90;;;;;;5010284;28;20238;-81
2023/01/16 07:26:39;;;;;;;1.43;0.90;;;2.80;99.90;;;;;;5011636;28;20175;-81
2023/01/16 07:29:05;;;;;;;1.80;0.97;;;2.80;99.90;;;;;;5011811;28;20198;-82
2023/01/16 07:31:33;;;;;;;1.70;1.00;;;2.70;99.90;;;;;;5010322;28;20187;-81
2023/01/16 07:33:58;;;;;;;1.40;0.90;;;3.10;99.90;;;;;;5026654;28;20293;-80
2023/01/16 07:36:24;;;;;;;1.57;1.10;;;3.10;1.00;;;;;;5011354;28;20188;-82
2023/01/16 07:38:49;;;;;;;1.93;1.13;;;2.70;1.00;;;;;;5011082;28;20187;-81
2023/01/16 07:41:15;;;;;;;1.00;0.90;;;2.60;99.90;;;;;;5011445;28;20210;-80
2023/01/16 07:43:41;;;;;;;3.90;1.23;;;2.70;99.90;;;;;;5009693;28;20214;-81
2023/01/16 07:46:06;;;;;;;2.30;0.90;;;2.80;99.90;;;;;;5010260;28;21333;-80
2023/01/16 07:48:32;;;;;;;2.73;1.43;;;2.70;99.90;;;;;;5010091;28;20543;-80
2023/01/16 07:50:59;;;;;;;2.13;1.30;;;2.80;99.90;;;;;;5008522;28;20354;-82
2023/01/16 07:53:27;;;;;;;2.17;1.30;;;2.90;99.90;;;;;;5005766;28;20237;-79
2023/01/16 07:55:59;;;;;;;2.23;1.23;;;2.90;99.90;;;;;;5007528;28;20243;-84
2023/01/16 07:58:25;;;;;;;1.33;1.10;;;3.10;99.90;;;;;;5009993;28;20184;-80
2023/01/16 08:00:55;;;;;;;4.77;1.60;;;3.20;99.90;;;;;;5007988;28;20486;-82
2023/01/16 08:03:22;;;;;;;4.00;2.67;;;3.40;99.90;;;;;;5008692;28;20210;-82
2023/01/16 08:05:49;;;;;;;12.60;7.63;;;3.40;97.10;;;;;;5008915;28;20207;-81
2023/01/16 08:08:16;;;;;;;5.67;3.17;;;3.50;93.20;;;;;;5009705;28;20190;-80
2023/01/16 08:10:41;;;;;;;6.80;4.10;;;3.60;70.80;;;;;;5010994;28;20192;-81
2023/01/16 08:13:07;;;;;;;4.10;2.83;;;3.60;41.50;;;;;;5009516;28;20191;-81
2023/01/16 08:15:33;;;;;;;4.87;2.60;;;3.70;46.10;;;;;;5009991;28;20203;-82
2023/01/16 08:17:58;;;;;;;5.60;2.50;;;3.70;37.80;;;;;;5011427;28;20187;-80
2023/01/16 08:20:27;;;;;;;4.60;2.70;;;3.60;48.30;;;;;;5010422;28;20217;-81
2023/01/16 08:22:53;;;;;;;7.90;4.17;;;3.40;39.60;;;;;;5007903;28;20203;-80
2023/01/16 08:25:20;;;;;;;12.07;6.43;;;3.50;51.70;;;;;;5009883;28;20208;-80
2023/01/16 08:27:46;;;;;;;9.10;5.90;;;3.50;45.90;;;;;;5009148;28;20186;-81
2023/01/16 08:30:13;;;;;;;12.03;7.07;;;3.60;44.50;;;;;;5009749;28;20176;-81
2023/01/16 08:32:39;;;;;;;16.67;9.63;;;3.60;40.20;;;;;;5008657;28;20533;-81
2023/01/16 08:35:05;;;;;;;9.30;6.00;;;3.60;40.00;;;;;;5010377;28;20219;-79
2023/01/16 08:37:32;;;;;;;4.40;2.67;;;3.60;44.60;;;;;;5009904;28;20194;-80
2023/01/16 08:39:58;;;;;;;5.13;2.53;;;3.70;45.10;;;;;;5009385;28;20676;-79
2023/01/16 08:53:28;;;;;;;12.63;8.40;;;3.90;25.40;;;;;;5003477;28;20814;-82
2023/01/16 08:55:54;;;;;;;4.23;3.00;;;;;;;;;;5004618;28;20211;-82
2023/01/16 08:58:21;;;;;;;10.93;7.20;;;4.10;1.00;;;;;;5007709;28;20183;-78
2023/01/16 09:00:47;;;;;;;38.33;21.07;;;4.30;1.10;;;;;;5007573;28;20183;-80
2023/01/16 09:05:48;;;;;;;8.07;4.80;;;4.30;1.00;;;;;;5440793;23;20480;-78
2023/01/16 09:08:14;;;;;;;20.83;11.70;;;4.30;1.00;;;;;;5004440;28;20199;-78
2023/01/16 09:13:48;;;;;;;27.23;14.33;;;4.30;1.00;;;;;;5007455;28;20199;-78
2023/01/16 09:16:09;;;;;;;6.17;3.90;;;4.40;1.00;;;;;;5007757;28;20253;-79
2023/01/16 09:18:36;;;;;;;8.90;4.97;;;4.40;1.00;;;;;;5004841;28;20180;-79
2023/01/16 09:21:01;;;;;;;4.17;2.63;;;4.40;1.00;;;;;;5004405;28;20615;-78
2023/01/16 09:23:27;;;;;;;16.83;10.80;;;4.40;1.00;;;;;;5003470;28;20341;-78
2023/01/16 09:25:52;;;;;;;8.33;5.30;;;4.40;1.00;;;;;;5005616;28;20235;-78
2023/01/16 09:28:18;;;;;;;3.40;1.60;;;4.40;1.00;;;;;;5006015;28;20184;-80
2023/01/16 09:30:43;;;;;;;4.97;2.93;;;4.40;1.00;;;;;;5007760;28;20216;-79
2023/01/16 09:33:09;;;;;;;5.37;4.43;;;4.40;1.00;;;;;;5012893;28;20712;-79
2023/01/16 09:35:35;;;;;;;8.13;4.20;;;4.40;1.00;;;;;;5013207;28;21217;-79
2023/01/16 09:38:00;;;;;;;31.93;20.57;;;4.30;1.00;;;;;;5013141;28;20668;-80
2023/01/16 09:40:26;;;;;;;39.33;24.30;;;4.40;1.00;;;;;;5013125;28;20191;-80
2023/01/16 09:46:04;;;;;;;17.77;13.47;;;4.40;1.00;;;;;;5009413;28;20600;-80
2023/01/16 09:48:40;;;;;;;16.93;9.97;;;4.50;1.00;;;;;;5006279;28;20187;-78
2023/01/16 09:51:11;;;;;;;38.80;19.97;;;4.50;1.00;;;;;;5006795;28;20198;-80
2023/01/16 09:59:39;;;;;;;7.87;5.27;;;4.60;1.00;;;;;;5010755;28;20242;-78
2023/01/16 10:02:20;;;;;;;5.73;3.43;;;4.60;1.00;;;;;;5010907;28;20207;-80
2023/01/16 10:04:47;;;;;;;7.17;4.90;;;4.60;1.00;;;;;;5010022;28;20215;-80
2023/01/16 10:07:27;;;;;;;12.27;6.80;;;4.60;1.00;;;;;;5011825;28;20515;-79
2023/01/16 10:10:17;;;;;;;6.50;4.07;;;4.60;1.00;;;;;;5014804;28;20188;-80
2023/01/16 10:13:06;;;;;;;3.00;1.80;;;4.60;1.00;;;;;;5012900;28;20188;-80
2023/01/16 10:15:51;;;;;;;1.63;1.10;;;4.70;1.00;;;;;;5008263;28;20259;-79
2023/01/16 10:18:52;;;;;;;3.53;1.47;;;4.70;1.00;;;;;;5017900;28;20187;-79
2023/01/16 10:21:54;;;;;;;5.00;2.53;;;4.80;1.00;;;;;;5003301;28;20542;-79
2023/01/16 10:24:29;;;;;;;7.80;4.10;;;4.80;1.00;;;;;;5002323;28;20262;-79
2023/01/16 10:27:03;;;;;;;9.50;4.37;;;5.00;1.00;;;;;;5002936;28;20195;-79
2023/01/16 10:29:50;;;;;;;12.20;6.77;;;5.00;1.00;;;;;;5006056;28;20198;-76
2023/01/16 10:32:31;;;;;;;34.57;19.10;;;5.10;1.00;;;;;;5022280;28;20179;-78
2023/01/16 10:35:15;;;;;;;42.40;33.23;;;5.10;1.00;;;;;;5004131;28;20208;-79
2023/01/16 10:37:43;;;;;;;19.80;16.40;;;5.10;1.00;;;;;;5005513;28;20223;-79
2023/01/16 10:40:27;;;;;;;10.03;8.63;;;6.40;1.00;;;;;;5004909;28;20194;-79
2023/01/16 10:51:24;;;;;;;9.93;3.33;;;5.00;1.00;;;;;;5008278;28;20751;-79
2023/01/16 10:53:49;;;;;;;4.40;3.03;;;5.10;1.00;;;;;;5008046;28;20192;-79
2023/01/16 10:56:15;;;;;;;6.93;3.70;;;5.20;1.00;;;;;;5009563;28;20219;-78
2023/01/16 10:58:41;;;;;;;5.10;2.67;;;5.20;1.00;;;;;;5009469;28;20680;-79
2023/01/16 11:01:15;;;;;;;5.47;1.90;;;5.20;1.00;;;;;;5009475;28;20179;-79
2023/01/16 11:03:44;;;;;;;2.40;1.60;;;5.20;1.00;;;;;;5005134;28;20596;-80
2023/01/16 11:06:30;;;;;;;2.33;1.30;;;5.00;1.00;;;;;;5007284;28;20310;-81
2023/01/16 11:09:01;;;;;;;3.47;1.07;;;5.10;1.00;;;;;;5005966;28;20241;-80
2023/01/16 11:20:08;;;;;;;2.97;1.40;;;5.00;1.00;;;;;;5008708;28;20270;-79
2023/01/16 11:22:38;;;;;;;2.07;0.87;;;5.00;1.00;;;;;;5004424;28;20191;-77
2023/01/16 11:25:04;;;;;;;3.03;0.83;;;5.10;1.00;;;;;;5006805;28;20203;-78
2023/01/16 11:27:34;;;;;;;3.47;1.20;;;5.10;1.00;;;;;;5006084;28;20186;-78
2023/01/16 11:30:04;;;;;;;3.17;1.30;;;5.20;1.00;;;;;;5005150;28;20869;-78
2023/01/16 11:32:34;;;;;;;1.63;0.70;;;5.20;1.00;;;;;;5003580;28;20246;-78
2023/01/16 11:35:00;;;;;;;1.67;0.70;;;5.20;1.00;;;;;;5006451;28;20226;-79
2023/01/16 11:37:28;;;;;;;2.43;1.20;;;5.20;1.00;;;;;;5006301;28;20684;-79
2023/01/16 11:39:56;;;;;;;4.23;0.93;;;5.20;1.00;;;;;;5005314;28;20183;-79
2023/01/16 11:48:23;;;;;;;4.30;3.00;;;5.50;1.00;;;;;;5007581;28;20658;-78
2023/01/16 11:50:51;;;;;;;2.13;1.00;;;5.60;1.00;;;;;;5007841;28;20677;-79
2023/01/16 11:53:17;;;;;;;6.80;3.00;;;5.60;1.00;;;;;;5007791;28;20674;-77
2023/01/16 11:56:01;;;;;;;5.93;3.23;;;5.60;1.00;;;;;;5006483;28;20207;-78
2023/01/16 11:58:52;;;;;;;12.27;9.27;;;5.60;1.00;;;;;;5008480;28;20373;-80
2023/01/16 12:01:26;;;;;;;8.77;4.03;;;5.50;1.00;;;;;;5010321;28;20191;-78
2023/01/16 12:04:15;;;;;;;8.47;2.83;;;5.50;1.00;;;;;;5009956;28;20211;-79
2023/01/16 12:06:52;;;;;;;4.87;3.00;;;5.60;1.00;;;;;;5010402;28;20239;-77
2023/01/16 12:09:18;;;;;;;2.93;2.13;;;5.50;1.00;;;;;;5008095;28;20183;-78
2023/01/16 12:14:17;;;;;;;3.83;1.90;;;5.60;1.00;;;;;;5009255;28;20176;-78
2023/01/16 12:15:01;;;;;;;2.23;0.80;;;5.60;1.00;;;;;;5011820;28;20203;-79
2023/01/16 12:17:33;;;;;;;2.07;0.70;;;5.60;1.00;;;;;;5006695;28;20191;-78
2023/01/16 12:20:29;;;;;;;0.97;0.57;;;5.60;1.00;;;;;;5007187;28;20265;-78
2023/01/16 12:23:34;;;;;;;1.50;0.57;;;5.60;1.00;;;;;;5007068;28;20211;-78
2023/01/16 12:26:04;;;;;;;1.97;1.00;;;5.60;1.00;;;;;;4995048;28;20716;-79
2023/01/16 12:28:44;;;;;;;1.70;0.63;;;5.60;1.00;;;;;;5006045;28;20178;-78
2023/01/16 12:31:27;;;;;;;1.30;0.60;;;5.60;1.00;;;;;;5005399;28;20259;-78
2023/01/16 12:34:24;;;;;;;1.40;0.50;;;5.70;1.00;;;;;;5007702;28;20203;-77
2023/01/16 12:37:29;;;;;;;2.40;0.60;;;5.90;1.00;;;;;;5007190;28;20211;-78
2023/01/16 12:40:16;;;;;;;1.70;0.67;;;5.70;1.00;;;;;;5006912;28;20446;-79
2023/01/16 12:45:44;;;;;;;5.67;1.00;;;5.80;1.00;;;;;;5005606;28;20218;-80
2023/01/16 12:48:31;;;;;;;2.20;0.87;;;5.70;1.00;;;;;;5006358;28;20207;-78
2023/01/16 12:51:16;;;;;;;1.77;0.90;;;5.50;1.00;;;;;;5009450;28;20755;-78
2023/01/16 12:54:00;;;;;;;2.63;1.80;;;5.60;1.00;;;;;;5008234;28;20187;-78
2023/01/16 12:57:06;;;;;;;3.73;1.30;;;5.50;1.00;;;;;;5009351;28;20263;-78
2023/01/16 12:59:51;;;;;;;0.97;0.60;;;5.50;1.00;;;;;;5010684;28;20245;-79
2023/01/16 13:02:23;;;;;;;2.77;0.80;;;5.60;1.00;;;;;;5010948;28;20322;-78
2023/01/16 13:04:55;;;;;;;1.93;0.90;;;5.60;1.00;;;;;;5011152;28;20707;-77
2023/01/16 13:07:21;;;;;;;1.73;0.80;;;5.60;1.00;;;;;;5012511;28;20209;-78
2023/01/16 13:15:46;;;;;;;2.77;0.60;;;5.60;1.00;;;;;;5007986;28;20219;-77
2023/01/16 13:18:33;;;;;;;2.63;1.20;;;5.60;1.00;;;;;;5006390;28;20192;-78
2023/01/16 13:21:02;;;;;;;1.53;0.70;;;5.60;1.00;;;;;;5007312;28;20660;-77
2023/01/16 13:23:38;;;;;;;1.97;0.60;;;5.70;1.00;;;;;;5007769;28;20566;-77
2023/01/16 13:26:08;;;;;;;2.33;0.70;;;5.70;1.00;;;;;;5005473;28;20202;-78
2023/01/16 13:28:51;;;;;;;2.13;0.73;;;5.70;1.00;;;;;;5009240;28;20244;-77
2023/01/16 13:31:56;;;;;;;1.27;0.57;;;5.70;1.00;;;;;;5006417;28;20230;-76
2023/01/16 13:34:28;;;;;;;3.27;0.90;;;5.80;1.00;;;;;;4990315;28;20285;-78
2023/01/16 13:37:18;;;;;;;1.80;0.70;;;5.80;1.00;;;;;;5007063;28;20180;-77
2023/01/16 13:39:44;;;;;;;1.60;0.80;;;5.80;1.00;;;;;;5005911;28;20653;-77
2023/01/16 13:42:13;;;;;;;1.63;0.90;;;5.90;1.00;;;;;;5005626;28;20194;-80
2023/01/16 13:47:32;;;;;;;2.40;0.70;;;5.90;1.00;;;;;;5012067;28;20187;-77
2023/01/16 13:50:20;;;;;;;2.30;0.60;;;5.80;1.00;;;;;;5010288;28;20294;-77
2023/01/16 13:52:46;;;;;;;2.87;1.07;;;5.90;1.00;;;;;;5005761;28;20175;-77
2023/01/16 13:55:28;;;;;;;2.63;1.03;;;5.90;1.00;;;;;;5007394;28;20214;-78
2023/01/16 13:57:56;;;;;;;2.53;1.00;;;6.00;1.00;;;;;;5008346;28;20243;-81
2023/01/16 14:00:23;;;;;;;0.83;0.50;;;6.00;1.00;;;;;;5008081;28;20208;-80
2023/01/16 14:03:19;;;;;;;2.80;0.80;;;6.10;1.00;;;;;;5005609;28;20658;-81
2023/01/16 14:05:51;;;;;;;1.60;0.70;;;6.20;1.00;;;;;;5010043;28;20207;-80
2023/01/16 14:11:14;;;;;;;3.10;1.80;;;6.90;1.00;;;;;;5016632;28;20442;-78
2023/01/16 14:13:40;;;;;;;2.03;0.70;;;6.30;1.00;;;;;;5035725;28;20199;-80
2023/01/16 14:18:56;;;;;;;1.10;0.60;;;6.20;1.00;;;;;;5013642;28;20567;-79
2023/01/16 14:21:43;;;;;;;1.43;0.80;;;6.00;1.00;;;;;;5018129;28;20188;-78
2023/01/16 14:24:17;;;;;;;1.77;0.80;;;5.90;1.00;;;;;;5013278;28;20219;-77
2023/01/16 14:26:56;;;;;;;0.73;0.67;;;5.80;1.00;;;;;;5015845;28;20190;-79
2023/01/16 14:29:43;;;;;;;1.17;0.60;;;5.80;1.00;;;;;;5014019;28;20187;-78
2023/01/16 14:32:12;;;;;;;2.30;1.13;;;5.70;1.00;;;;;;5030444;28;20184;-78
2023/01/16 14:34:50;;;;;;;2.30;0.93;;;5.70;1.00;;;;;;5028100;28;20582;-78
2023/01/16 14:37:26;;;;;;;1.77;0.80;;;5.70;1.00;;;;;;5015754;28;20179;-78
2023/01/16 14:40:01;;;;;;;3.40;0.73;;;4.00;1.00;;;;;;5013554;28;21293;-79
2023/01/16 14:56:49;;;;;;;0.97;0.60;;;5.40;1.00;;;;;;5015922;28;20227;-78
2023/01/16 14:59:36;;;;;;;1.40;0.77;;;5.40;1.00;;;;;;5014955;28;20668;-78